Merritt Island, Florida
Current Conditions -  °F | °C
As of 12:58 PM on Monday 26 Jan 2015 (Local Time) from KCOF Reporting Station
Clear Clear  
Wind Chill: 19°   Ceiling: Unl
Heat Index: 19°   Visibility: 10mi
Dew Point:   Wind: 28mph
Humidity: 50%   Direction: 280°W
Pressure: 29.82"   Gusts: 31mph
Location:  28.36°N, 80.68°W
Report Text: KCOF 261758Z AUTO 28024G27KT 10SM CLR 19/08 A2982 RMK AO2 PK WND 29031/30 SLP102 60001 T01910083 10192 20142 58022 VISNO RWY02 CHINO RWY02 $
Loading
Personal Weather Stations






























Interactive Weather Map New forecast layout! Learn more

10-Day Weather Forecast

Advertisements
Track Severe Weather on mobile